Time;durP1;ratioP1;P1;durP2;ratioP2;P2;SDS_P1;SDS_P2;PMS_P1;PMS_P2;Temp;Humidity;BMP_temperature;BMP_pressure;BME280_temperature;BME280_humidity;BME280_pressure;Samples;Min_cycle;Max_cycle;Signal;HPM_P1;HPM_P2
2021/06/10 00:00:37;;;;;;;22.35;12.50;;;;;;;;;;4981849;28;20204;-65
2021/06/10 00:03:04;;;;;;;24.52;12.75;;;;;;;;;;4982682;28;20037;-66
2021/06/10 00:05:30;;;;;;;22.55;12.77;;;;;;;;;;4986056;28;20057;-65
2021/06/10 00:07:55;;;;;;;26.13;13.80;;;;;;;;;;4986735;28;20030;-66
2021/06/10 00:10:25;;;;;;;27.38;14.57;;;;;;;;;;4988338;28;20653;-65
2021/06/10 00:12:51;;;;;;;26.40;14.05;;;;;;;;;;4985857;28;20064;-64
2021/06/10 00:15:19;;;;;;;23.23;14.02;;;;;;;;;;4984109;28;20192;-65
2021/06/10 00:17:45;;;;;;;24.58;14.77;;;;;;;;;;4987996;28;20018;-66
2021/06/10 00:20:12;;;;;;;26.92;14.15;;;;;;;;;;4986754;28;20046;-66
2021/06/10 00:22:41;;;;;;;24.88;14.70;;;;;;;;;;4973000;28;20068;-65
2021/06/10 00:25:07;;;;;;;25.70;14.45;;;;;;;;;;5000962;28;22017;-64
2021/06/10 00:27:33;;;;;;;26.92;13.55;;;;;;;;;;4969118;28;20068;-65
2021/06/10 00:29:58;;;;;;;24.13;13.65;;;;;;;;;;4986689;28;20129;-63
2021/06/10 00:32:24;;;;;;;24.70;13.07;;;;;;;;;;5001588;28;20044;-62
2021/06/10 00:34:50;;;;;;;27.63;15.13;;;;;;;;;;4967611;28;20030;-64
2021/06/10 00:37:16;;;;;;;27.77;14.82;;;;;;;;;;4988429;28;20061;-64
2021/06/10 00:39:44;;;;;;;25.65;14.02;;;;;;;;;;4985571;28;20902;-63
2021/06/10 00:42:10;;;;;;;23.58;13.43;;;;;;;;;;4987182;28;20029;-64
2021/06/10 00:44:35;;;;;;;26.88;13.35;;;;;;;;;;4986489;28;20514;-64
2021/06/10 00:47:01;;;;;;;23.48;14.40;;;;;;;;;;4985030;28;20582;-64
2021/06/10 00:49:27;;;;;;;25.77;15.07;;;;;;;;;;4985774;28;20615;-65
2021/06/10 00:51:52;;;;;;;26.30;14.10;;;;;;;;;;4984466;28;22072;-65
2021/06/10 00:54:19;;;;;;;25.30;12.52;;;;;;;;;;5000940;28;20113;-65
2021/06/10 00:56:45;;;;;;;26.13;14.32;;;;;;;;;;4983438;28;20392;-64
2021/06/10 00:59:11;;;;;;;27.17;13.98;;;;;;;;;;4984355;28;20084;-64
2021/06/10 01:01:36;;;;;;;28.23;14.07;;;;;;;;;;4991541;28;20565;-65
2021/06/10 01:04:02;;;;;;;22.90;13.02;;;;;;;;;;4984773;28;20034;-64
2021/06/10 01:06:35;;;;;;;22.80;13.80;;;;;;;;;;4986109;28;20042;-65
2021/06/10 01:09:00;;;;;;;25.90;14.80;;;;;;;;;;4986903;28;20065;-63
2021/06/10 01:11:35;;;;;;;29.05;15.63;;;;;;;;;;5000722;28;20108;-64
2021/06/10 01:14:04;;;;;;;28.35;16.40;;;;;;;;;;4987835;28;20485;-64
2021/06/10 01:16:32;;;;;;;25.60;14.43;;;;;;;;;;4984288;28;20030;-64
2021/06/10 01:19:01;;;;;;;28.17;15.63;;;;;;;;;;4996583;28;20076;-64
2021/06/10 01:21:27;;;;;;;25.52;15.73;;;;;;;;;;5000327;28;20025;-64
2021/06/10 01:24:00;;;;;;;26.38;15.30;;;;;;;;;;4984523;28;20034;-64
2021/06/10 01:26:26;;;;;;;35.58;16.73;;;;;;;;;;4985968;28;20029;-65
2021/06/10 01:28:53;;;;;;;32.33;17.10;;;;;;;;;;4988297;28;20095;-65
2021/06/10 01:31:19;;;;;;;26.00;15.25;;;;;;;;;;4986819;28;20724;-65
2021/06/10 01:33:53;;;;;;;31.48;15.43;;;;;;;;;;4986149;28;20042;-64
2021/06/10 01:36:21;;;;;;;25.85;15.27;;;;;;;;;;4986805;28;20036;-64
2021/06/10 01:38:50;;;;;;;29.73;15.40;;;;;;;;;;4985070;28;20041;-64
2021/06/10 01:41:17;;;;;;;27.05;15.85;;;;;;;;;;5000715;28;22081;-65
2021/06/10 01:43:43;;;;;;;29.67;16.70;;;;;;;;;;5001484;28;20044;-65
2021/06/10 01:46:11;;;;;;;30.48;17.05;;;;;;;;;;4985867;28;20025;-65
2021/06/10 01:48:37;;;;;;;27.15;16.30;;;;;;;;;;4998452;28;20541;-65
2021/06/10 01:51:04;;;;;;;33.03;17.67;;;;;;;;;;4984077;28;20065;-65
2021/06/10 01:53:30;;;;;;;31.63;17.00;;;;;;;;;;4985437;28;20029;-65
2021/06/10 01:55:58;;;;;;;30.10;16.35;;;;;;;;;;4984594;28;20041;-65
2021/06/10 01:58:24;;;;;;;34.40;17.23;;;;;;;;;;4982667;28;20371;-65
2021/06/10 02:00:51;;;;;;;30.05;17.00;;;;;;;;;;4984756;28;20112;-65
2021/06/10 02:03:19;;;;;;;28.75;15.43;;;;;;;;;;4984463;28;20030;-65
2021/06/10 02:05:46;;;;;;;30.70;17.05;;;;;;;;;;4982957;28;20048;-65
2021/06/10 02:08:13;;;;;;;28.65;16.30;;;;;;;;;;4982737;28;20049;-65
2021/06/10 02:10:40;;;;;;;29.20;15.98;;;;;;;;;;4984972;28;20037;-64
2021/06/10 02:13:09;;;;;;;31.17;16.60;;;;;;;;;;4982337;28;20038;-66
2021/06/10 02:15:35;;;;;;;33.85;17.60;;;;;;;;;;4982499;28;20022;-65
2021/06/10 02:18:01;;;;;;;31.67;16.85;;;;;;;;;;4998785;28;20050;-65
2021/06/10 02:20:27;;;;;;;33.28;17.63;;;;;;;;;;4983501;28;20144;-65
2021/06/10 02:22:54;;;;;;;31.23;17.08;;;;;;;;;;4985343;28;20068;-65
2021/06/10 02:25:20;;;;;;;31.83;17.85;;;;;;;;;;4982892;28;20039;-64
2021/06/10 02:27:45;;;;;;;25.83;15.90;;;;;;;;;;4969948;28;20045;-65
2021/06/10 02:30:12;;;;;;;31.95;17.23;;;;;;;;;;4984239;28;22101;-64
2021/06/10 02:32:38;;;;;;;29.02;16.63;;;;;;;;;;4982662;28;20041;-64
2021/06/10 02:35:06;;;;;;;28.20;16.95;;;;;;;;;;4984651;28;20037;-65
2021/06/10 02:37:33;;;;;;;35.40;18.42;;;;;;;;;;4982811;28;20602;-65
2021/06/10 02:40:00;;;;;;;29.02;15.77;;;;;;;;;;4985921;28;20032;-65
2021/06/10 02:42:27;;;;;;;35.28;17.15;;;;;;;;;;4983703;28;20037;-65
2021/06/10 02:44:54;;;;;;;32.15;16.98;;;;;;;;;;4985530;28;20042;-64
2021/06/10 02:47:20;;;;;;;25.63;14.73;;;;;;;;;;4983563;28;20034;-65
2021/06/10 02:49:47;;;;;;;22.38;13.02;;;;;;;;;;4978969;28;20160;-66
2021/06/10 02:52:13;;;;;;;22.83;11.85;;;;;;;;;;4983962;28;20036;-65
2021/06/10 02:58:19;;;;;;;17.75;10.38;;;;;;;;;;4983807;28;20453;-66
2021/06/10 03:00:47;;;;;;;23.90;13.05;;;;;;;;;;4980628;28;20684;-65
2021/06/10 03:03:16;;;;;;;21.85;12.52;;;;;;;;;;4979476;28;20140;-65
2021/06/10 03:05:45;;;;;;;23.02;12.38;;;;;;;;;;4982265;28;20108;-66
2021/06/10 03:08:16;;;;;;;24.20;12.57;;;;;;;;;;4990067;28;20069;-65
2021/06/10 03:10:43;;;;;;;30.75;14.27;;;;;;;;;;4979162;28;20141;-64
2021/06/10 03:13:11;;;;;;;23.35;13.57;;;;;;;;;;4961933;28;20038;-65
2021/06/10 03:15:37;;;;;;;24.50;13.82;;;;;;;;;;4997529;28;20030;-66
2021/06/10 03:18:04;;;;;;;25.95;14.27;;;;;;;;;;4984310;28;20032;-65
2021/06/10 03:20:30;;;;;;;24.30;13.65;;;;;;;;;;4982973;28;21140;-65
2021/06/10 03:22:57;;;;;;;28.95;15.45;;;;;;;;;;4982727;28;21505;-65
2021/06/10 03:25:23;;;;;;;25.92;14.88;;;;;;;;;;4969174;28;20030;-64
2021/06/10 03:27:49;;;;;;;23.75;14.07;;;;;;;;;;4985572;28;20077;-65
2021/06/10 03:30:15;;;;;;;18.20;11.32;;;;;;;;;;4974573;28;20026;-64
2021/06/10 03:32:42;;;;;;;18.65;10.00;;;;;;;;;;4975051;28;20034;-65
2021/06/10 03:35:08;;;;;;;18.20;10.15;;;;;;;;;;4976122;28;20044;-64
2021/06/10 03:37:38;;;;;;;19.48;10.48;;;;;;;;;;4980182;28;20108;-63
2021/06/10 03:40:05;;;;;;;23.67;13.00;;;;;;;;;;4996141;28;20037;-66
2021/06/10 03:42:34;;;;;;;25.48;14.43;;;;;;;;;;4965492;28;20586;-65
2021/06/10 03:45:00;;;;;;;26.40;13.20;;;;;;;;;;4986128;28;20112;-65
2021/06/10 03:47:27;;;;;;;24.05;13.18;;;;;;;;;;4985972;28;20872;-66
2021/06/10 03:49:53;;;;;;;22.40;13.20;;;;;;;;;;4983768;28;20041;-65
2021/06/10 03:52:22;;;;;;;23.15;12.50;;;;;;;;;;4981548;28;20143;-65
2021/06/10 03:54:48;;;;;;;22.90;13.15;;;;;;;;;;4981721;28;20037;-64
2021/06/10 03:57:13;;;;;;;21.90;13.50;;;;;;;;;;4979765;28;20026;-65
2021/06/10 03:59:39;;;;;;;24.88;13.82;;;;;;;;;;4981869;28;20129;-65
2021/06/10 04:02:05;;;;;;;27.13;15.25;;;;;;;;;;4985050;28;20456;-66
2021/06/10 04:04:31;;;;;;;22.70;13.85;;;;;;;;;;4984714;28;20047;-68
2021/06/10 04:06:57;;;;;;;25.75;15.45;;;;;;;;;;4980176;28;20680;-63
2021/06/10 04:09:23;;;;;;;28.45;15.50;;;;;;;;;;4953810;28;20986;-63
2021/06/10 04:11:49;;;;;;;24.83;14.07;;;;;;;;;;4990228;28;20030;-64
2021/06/10 04:14:14;;;;;;;29.50;15.48;;;;;;;;;;4974307;28;20038;-65
2021/06/10 04:16:40;;;;;;;27.13;14.13;;;;;;;;;;4987762;28;20034;-67
2021/06/10 04:19:06;;;;;;;28.27;14.00;;;;;;;;;;4990997;28;20129;-64
2021/06/10 04:21:32;;;;;;;25.50;14.25;;;;;;;;;;4973017;28;20054;-65
2021/06/10 04:23:58;;;;;;;22.00;12.30;;;;;;;;;;4989133;28;20030;-64
2021/06/10 04:26:23;;;;;;;24.95;13.68;;;;;;;;;;4989570;28;20060;-64
2021/06/10 04:28:49;;;;;;;22.85;13.50;;;;;;;;;;4985769;28;20081;-65
2021/06/10 04:31:16;;;;;;;26.65;14.70;;;;;;;;;;4989839;28;20026;-65
2021/06/10 04:33:42;;;;;;;23.05;14.10;;;;;;;;;;4988719;28;20029;-65
2021/06/10 04:36:10;;;;;;;26.00;13.90;;;;;;;;;;4988687;28;20033;-64
2021/06/10 04:38:36;;;;;;;23.77;13.10;;;;;;;;;;4985388;28;20552;-65
2021/06/10 04:41:02;;;;;;;23.35;13.43;;;;;;;;;;4985184;28;20053;-65
2021/06/10 04:43:28;;;;;;;19.85;12.90;;;;;;;;;;4989886;28;20037;-64
2021/06/10 04:45:56;;;;;;;22.45;13.35;;;;;;;;;;4986293;28;20044;-65
2021/06/10 04:48:22;;;;;;;24.15;14.68;;;;;;;;;;4998861;28;20030;-65
2021/06/10 04:50:51;;;;;;;24.00;13.23;;;;;;;;;;4999606;28;20034;-65
2021/06/10 04:53:17;;;;;;;22.58;13.48;;;;;;;;;;4978304;28;21003;-64
2021/06/10 04:55:43;;;;;;;24.30;13.23;;;;;;;;;;4977917;28;20029;-64
2021/06/10 04:58:12;;;;;;;23.55;13.48;;;;;;;;;;4977690;28;20493;-65
2021/06/10 05:00:38;;;;;;;20.70;13.00;;;;;;;;;;4994456;28;20038;-65
2021/06/10 05:03:04;;;;;;;18.50;12.35;;;;;;;;;;4990319;28;20038;-66
2021/06/10 05:05:32;;;;;;;20.95;12.68;;;;;;;;;;4972882;28;20067;-66
2021/06/10 05:07:57;;;;;;;19.48;11.25;;;;;;;;;;4974019;28;20061;-66
2021/06/10 05:10:23;;;;;;;20.52;11.77;;;;;;;;;;4975080;28;20044;-66
2021/06/10 05:12:49;;;;;;;20.23;11.80;;;;;;;;;;4974888;28;20073;-64
2021/06/10 05:15:17;;;;;;;18.45;10.75;;;;;;;;;;4978038;28;20041;-65
2021/06/10 05:17:43;;;;;;;18.45;11.50;;;;;;;;;;4967311;28;20030;-66
2021/06/10 05:20:09;;;;;;;21.88;13.20;;;;;;;;;;4993318;28;20033;-65
2021/06/10 05:22:38;;;;;;;20.48;12.05;;;;;;;;;;4979687;28;20025;-66
2021/06/10 05:25:07;;;;;;;16.92;11.35;;;;;;;;;;4988893;28;20038;-66
2021/06/10 05:27:35;;;;;;;19.75;11.82;;;;;;;;;;4991213;28;20103;-66
2021/06/10 05:30:01;;;;;;;22.55;11.80;;;;;;;;;;4976180;28;20104;-65
2021/06/10 05:32:27;;;;;;;18.75;10.85;;;;;;;;;;4980717;28;20049;-67
2021/06/10 05:34:53;;;;;;;18.98;11.07;;;;;;;;;;4975877;28;20642;-65
2021/06/10 05:37:19;;;;;;;18.45;11.20;;;;;;;;;;4960772;28;20034;-66
2021/06/10 05:39:45;;;;;;;19.48;11.02;;;;;;;;;;4990752;28;21084;-66
2021/06/10 05:42:11;;;;;;;18.13;11.88;;;;;;;;;;4974659;28;20036;-66
2021/06/10 05:44:37;;;;;;;18.50;11.20;;;;;;;;;;4976387;28;20037;-65
2021/06/10 05:47:03;;;;;;;18.95;11.00;;;;;;;;;;4979348;28;20623;-66
2021/06/10 05:49:29;;;;;;;17.25;10.57;;;;;;;;;;4963780;28;20034;-66
2021/06/10 05:51:55;;;;;;;15.55;9.82;;;;;;;;;;4976428;28;20136;-66
2021/06/10 05:54:21;;;;;;;15.38;10.35;;;;;;;;;;4973156;28;20048;-66
2021/06/10 05:56:47;;;;;;;16.85;10.15;;;;;;;;;;4977619;28;20044;-66
2021/06/10 05:59:13;;;;;;;15.82;9.50;;;;;;;;;;4985407;28;20100;-66
2021/06/10 06:01:39;;;;;;;20.55;9.02;;;;;;;;;;4979921;28;20037;-66
2021/06/10 06:04:05;;;;;;;15.05;9.38;;;;;;;;;;4984530;28;20083;-66
2021/06/10 06:06:31;;;;;;;13.18;8.85;;;;;;;;;;4984668;28;20058;-66
2021/06/10 06:08:57;;;;;;;16.42;8.60;;;;;;;;;;4981898;28;20930;-67
2021/06/10 06:11:23;;;;;;;15.45;8.30;;;;;;;;;;4984158;28;20033;-67
2021/06/10 06:14:06;;;;;;;14.45;8.18;;;;;;;;;;4982582;28;20033;-67
2021/06/10 06:16:32;;;;;;;12.65;8.18;;;;;;;;;;4984677;28;20026;-64
2021/06/10 06:19:01;;;;;;;12.05;8.30;;;;;;;;;;4981199;28;20152;-67
2021/06/10 06:21:32;;;;;;;12.07;7.80;;;;;;;;;;4984759;28;20029;-65
2021/06/10 06:23:58;;;;;;;14.70;8.30;;;;;;;;;;4982037;28;20038;-63
2021/06/10 06:26:24;;;;;;;12.10;8.30;;;;;;;;;;4984088;28;20038;-66
2021/06/10 06:28:50;;;;;;;13.50;8.15;;;;;;;;;;4999361;28;20591;-67
2021/06/10 06:31:16;;;;;;;13.13;8.13;;;;;;;;;;4985619;28;20034;-68
2021/06/10 06:33:45;;;;;;;11.77;7.82;;;;;;;;;;4998970;28;20056;-66
2021/06/10 06:36:11;;;;;;;14.00;7.65;;;;;;;;;;4981803;28;20040;-66
2021/06/10 06:38:39;;;;;;;12.07;7.95;;;;;;;;;;4983393;28;20929;-68
2021/06/10 06:41:05;;;;;;;13.90;7.57;;;;;;;;;;4985762;28;20026;-68
2021/06/10 06:43:31;;;;;;;14.93;7.18;;;;;;;;;;4984874;28;20048;-68
2021/06/10 06:45:58;;;;;;;10.07;7.32;;;;;;;;;;4981755;28;20041;-65
2021/06/10 06:48:28;;;;;;;12.20;7.60;;;;;;;;;;4983029;28;20037;-68
2021/06/10 06:50:54;;;;;;;13.02;6.63;;;;;;;;;;4984843;28;20057;-69
2021/06/10 06:53:26;;;;;;;14.20;6.82;;;;;;;;;;4982339;28;20076;-67
2021/06/10 06:55:52;;;;;;;14.43;7.43;;;;;;;;;;4983344;28;20573;-68
2021/06/10 06:58:20;;;;;;;11.68;7.32;;;;;;;;;;4983603;28;20039;-68
2021/06/10 07:00:46;;;;;;;12.93;7.53;;;;;;;;;;4983542;28;20386;-67
2021/06/10 07:03:12;;;;;;;11.18;6.82;;;;;;;;;;4983480;28;20053;-66
2021/06/10 07:05:41;;;;;;;14.38;7.82;;;;;;;;;;4984885;28;20538;-66
2021/06/10 07:08:09;;;;;;;15.05;7.25;;;;;;;;;;4984419;28;20036;-64
2021/06/10 07:10:35;;;;;;;10.77;7.25;;;;;;;;;;4983927;28;20030;-65
2021/06/10 07:13:01;;;;;;;13.48;7.28;;;;;;;;;;4982141;28;20026;-67
2021/06/10 07:15:27;;;;;;;12.07;7.50;;;;;;;;;;4984786;28;20044;-67
2021/06/10 07:17:53;;;;;;;12.52;7.45;;;;;;;;;;4998388;28;20057;-65
2021/06/10 07:20:22;;;;;;;12.40;8.43;;;;;;;;;;4983093;28;20037;-66
2021/06/10 07:22:48;;;;;;;8.63;6.53;;;;;;;;;;4999790;28;20025;-66
2021/06/10 07:25:14;;;;;;;12.07;7.70;;;;;;;;;;4963799;28;20514;-66
2021/06/10 07:27:41;;;;;;;11.55;6.97;;;;;;;;;;4995925;28;20037;-63
2021/06/10 07:30:09;;;;;;;8.63;5.95;;;;;;;;;;4983111;28;20033;-67
2021/06/10 07:32:35;;;;;;;11.57;7.25;;;;;;;;;;4984825;28;20061;-67
2021/06/10 07:35:02;;;;;;;8.18;5.82;;;;;;;;;;4982387;28;20042;-67
2021/06/10 07:37:27;;;;;;;9.20;5.88;;;;;;;;;;4983970;28;20120;-67
2021/06/10 07:39:58;;;;;;;9.07;5.60;;;;;;;;;;5000087;28;20042;-68
2021/06/10 07:42:24;;;;;;;6.28;5.00;;;;;;;;;;4984569;28;20063;-65
2021/06/10 07:44:50;;;;;;;6.95;5.25;;;;;;;;;;4970331;28;20054;-68
2021/06/10 07:47:16;;;;;;;9.02;6.55;;;;;;;;;;4984199;28;20034;-68
2021/06/10 07:49:42;;;;;;;8.23;5.28;;;;;;;;;;4985561;28;20121;-66
2021/06/10 07:52:07;;;;;;;7.65;5.82;;;;;;;;;;4969246;28;20096;-65
2021/06/10 07:54:33;;;;;;;9.38;4.50;;;;;;;;;;4990920;28;20057;-65
2021/06/10 07:57:00;;;;;;;11.63;6.05;;;;;;;;;;4984110;28;20080;-64
2021/06/10 07:59:26;;;;;;;8.90;5.85;;;;;;;;;;4966266;28;20125;-65
2021/06/10 08:01:53;;;;;;;10.43;5.13;;;;;;;;;;4982429;28;20030;-62
2021/06/10 08:04:18;;;;;;;10.32;5.50;;;;;;;;;;4969704;28;22130;-66
2021/06/10 08:06:44;;;;;;;13.77;4.97;;;;;;;;;;4998498;28;20045;-68
2021/06/10 08:09:11;;;;;;;9.02;5.53;;;;;;;;;;4985135;28;20042;-68
2021/06/10 08:11:40;;;;;;;7.22;5.07;;;;;;;;;;4981720;28;20029;-68
2021/06/10 08:14:06;;;;;;;6.68;5.13;;;;;;;;;;4996252;28;20030;-67
2021/06/10 08:16:32;;;;;;;9.25;5.65;;;;;;;;;;4984215;28;20053;-67
2021/06/10 08:18:58;;;;;;;6.70;5.18;;;;;;;;;;4984986;28;22113;-69
2021/06/10 08:21:24;;;;;;;9.93;5.40;;;;;;;;;;4984723;28;20069;-67
2021/06/10 08:23:51;;;;;;;7.28;4.43;;;;;;;;;;4986593;28;20041;-69
2021/06/10 08:26:17;;;;;;;7.40;5.07;;;;;;;;;;4985764;28;20034;-68
2021/06/10 08:28:43;;;;;;;8.48;4.72;;;;;;;;;;4987443;28;20643;-68
2021/06/10 08:31:09;;;;;;;8.35;4.35;;;;;;;;;;4987118;28;20045;-66
2021/06/10 08:33:35;;;;;;;7.35;5.15;;;;;;;;;;4987694;28;20057;-68
2021/06/10 08:36:02;;;;;;;6.30;5.28;;;;;;;;;;5002281;28;20061;-68
2021/06/10 08:38:29;;;;;;;10.95;4.80;;;;;;;;;;4988324;28;20124;-68
2021/06/10 08:40:55;;;;;;;7.60;5.00;;;;;;;;;;4988884;28;20575;-68
2021/06/10 08:43:21;;;;;;;6.38;4.57;;;;;;;;;;4972247;28;20038;-67
2021/06/10 08:45:50;;;;;;;6.97;3.78;;;;;;;;;;4985708;28;20034;-68
2021/06/10 08:48:16;;;;;;;8.00;4.22;;;;;;;;;;4987599;28;20025;-68
2021/06/10 08:50:42;;;;;;;5.80;4.32;;;;;;;;;;4990208;28;20503;-67
2021/06/10 08:53:11;;;;;;;7.10;4.00;;;;;;;;;;4988957;28;20026;-67
2021/06/10 08:55:36;;;;;;;7.75;4.75;;;;;;;;;;4988109;28;20553;-67
2021/06/10 08:58:02;;;;;;;11.70;3.92;;;;;;;;;;4989077;28;20034;-69
2021/06/10 09:00:29;;;;;;;4.35;3.95;;;;;;;;;;4982270;28;20022;-68
2021/06/10 09:02:59;;;;;;;5.90;3.03;;;;;;;;;;4989155;28;20137;-68
2021/06/10 09:05:25;;;;;;;3.22;2.92;;;;;;;;;;4999375;28;20022;-69
2021/06/10 09:07:55;;;;;;;3.85;3.20;;;;;;;;;;4972355;28;20041;-68
2021/06/10 09:10:21;;;;;;;5.22;3.45;;;;;;;;;;4986375;28;20034;-64
2021/06/10 09:12:48;;;;;;;5.00;3.10;;;;;;;;;;4985694;28;20039;-64
2021/06/10 09:15:15;;;;;;;3.13;2.92;;;;;;;;;;4987088;28;20152;-65
2021/06/10 09:17:44;;;;;;;3.92;3.47;;;;;;;;;;4986549;28;20038;-66
2021/06/10 09:20:18;;;;;;;4.53;3.60;;;;;;;;;;4998427;28;20045;-66
2021/06/10 09:22:47;;;;;;;7.15;3.35;;;;;;;;;;4988410;28;20159;-67
2021/06/10 09:25:19;;;;;;;5.80;3.35;;;;;;;;;;4986993;28;20030;-66
2021/06/10 09:27:55;;;;;;;6.65;3.00;;;;;;;;;;4998288;28;20129;-64
2021/06/10 09:30:28;;;;;;;4.13;3.35;;;;;;;;;;4999712;28;20034;-67
2021/06/10 09:32:54;;;;;;;5.03;3.55;;;;;;;;;;4985126;28;20060;-66
2021/06/10 09:35:27;;;;;;;7.97;3.55;;;;;;;;;;4987814;28;20271;-67
2021/06/10 09:37:57;;;;;;;4.32;3.92;;;;;;;;;;4986659;28;20485;-66
2021/06/10 09:40:23;;;;;;;4.55;3.60;;;;;;;;;;4981586;28;21014;-66
2021/06/10 09:42:50;;;;;;;9.77;4.93;;;;;;;;;;4986283;28;20057;-66
2021/06/10 09:45:17;;;;;;;5.13;4.15;;;;;;;;;;4985602;28;20762;-68
2021/06/10 09:47:50;;;;;;;5.10;3.80;;;;;;;;;;4986752;28;20031;-66
2021/06/10 09:50:30;;;;;;;6.63;4.47;;;;;;;;;;4985666;28;20039;-68
2021/06/10 09:52:57;;;;;;;9.43;4.50;;;;;;;;;;4970310;28;20037;-67
2021/06/10 09:55:30;;;;;;;5.57;4.28;;;;;;;;;;4987302;28;20984;-68
2021/06/10 09:58:18;;;;;;;6.13;4.72;;;;;;;;;;4985220;28;20037;-67
2021/06/10 10:00:49;;;;;;;8.35;4.10;;;;;;;;;;4978659;28;20038;-67
2021/06/10 10:03:24;;;;;;;5.28;4.00;;;;;;;;;;4987492;28;20042;-70
2021/06/10 10:09:11;;;;;;;5.60;5.00;;;;;;;;;;4986496;28;20022;-67
2021/06/10 10:11:37;;;;;;;6.15;4.13;;;;;;;;;;4985064;28;20056;-67
2021/06/10 10:14:06;;;;;;;5.28;3.42;;;;;;;;;;4984699;28;20762;-64
2021/06/10 10:16:33;;;;;;;7.03;4.68;;;;;;;;;;4982323;28;20168;-67
2021/06/10 10:19:03;;;;;;;7.90;4.07;;;;;;;;;;4985935;28;20033;-67
2021/06/10 10:21:30;;;;;;;5.80;3.67;;;;;;;;;;5000159;28;20049;-64
2021/06/10 10:24:02;;;;;;;5.55;3.58;;;;;;;;;;4985143;28;20034;-68
2021/06/10 10:26:29;;;;;;;4.30;3.00;;;;;;;;;;4997379;28;20056;-66
2021/06/10 10:28:54;;;;;;;6.13;4.47;;;;;;;;;;4999807;28;20734;-67
2021/06/10 10:31:20;;;;;;;5.13;4.13;;;;;;;;;;4985548;28;20126;-67
2021/06/10 10:33:46;;;;;;;8.77;3.15;;;;;;;;;;4984960;28;20042;-66
2021/06/10 10:36:31;;;;;;;7.53;5.13;;;;;;;;;;4987897;28;20767;-68
2021/06/10 10:39:03;;;;;;;6.70;4.38;;;;;;;;;;4984916;28;20046;-68
2021/06/10 10:41:30;;;;;;;6.13;3.78;;;;;;;;;;4985424;28;20033;-64
2021/06/10 10:44:25;;;;;;;5.45;3.50;;;;;;;;;;4999663;28;20037;-66
2021/06/10 10:47:00;;;;;;;4.63;3.35;;;;;;;;;;4984324;28;20050;-68
2021/06/10 10:49:29;;;;;;;5.55;3.53;;;;;;;;;;4986939;28;20052;-68
2021/06/10 10:52:13;;;;;;;4.65;2.85;;;;;;;;;;4984326;28;20026;-68
2021/06/10 10:54:41;;;;;;;3.13;2.40;;;;;;;;;;4986866;28;20457;-68
2021/06/10 10:57:30;;;;;;;3.72;2.88;;;;;;;;;;4986959;28;20034;-68
2021/06/10 10:59:57;;;;;;;3.88;2.80;;;;;;;;;;4999239;28;21843;-66
2021/06/10 11:02:27;;;;;;;2.58;1.80;;;;;;;;;;4969759;28;20037;-66
2021/06/10 11:04:59;;;;;;;2.33;1.75;;;;;;;;;;4984603;28;20030;-65
2021/06/10 11:07:38;;;;;;;2.70;2.03;;;;;;;;;;5000004;28;20046;-67
2021/06/10 11:10:10;;;;;;;2.05;1.63;;;;;;;;;;4984413;28;20041;-66
2021/06/10 11:12:39;;;;;;;3.85;2.15;;;;;;;;;;4983841;28;20473;-66
2021/06/10 11:15:05;;;;;;;3.05;1.98;;;;;;;;;;4964532;28;20025;-63
2021/06/10 11:17:42;;;;;;;2.00;1.70;;;;;;;;;;4984886;28;20038;-66
2021/06/10 11:20:13;;;;;;;2.50;2.20;;;;;;;;;;4965317;28;20038;-65
2021/06/10 11:22:45;;;;;;;3.05;2.22;;;;;;;;;;4984343;28;20160;-66
2021/06/10 11:25:29;;;;;;;2.70;1.85;;;;;;;;;;4984799;28;20057;-66
2021/06/10 11:28:16;;;;;;;3.70;2.33;;;;;;;;;;4978994;28;20038;-64
2021/06/10 11:30:44;;;;;;;2.45;1.70;;;;;;;;;;4968319;28;20042;-65
2021/06/10 11:33:10;;;;;;;1.50;1.40;;;;;;;;;;4981574;28;20647;-69
2021/06/10 11:35:37;;;;;;;2.13;1.33;;;;;;;;;;4985298;28;20152;-68
2021/06/10 11:38:29;;;;;;;6.40;1.40;;;;;;;;;;5000369;28;20030;-66
2021/06/10 11:40:57;;;;;;;0.80;0.80;;;;;;;;;;4979267;28;20055;-68
2021/06/10 11:43:25;;;;;;;1.38;1.27;;;;;;;;;;4984328;28;20030;-67
2021/06/10 11:45:57;;;;;;;4.47;1.60;;;;;;;;;;4982131;28;20808;-66
2021/06/10 11:48:33;;;;;;;2.20;1.40;;;;;;;;;;4983698;28;20161;-66
2021/06/10 11:50:59;;;;;;;1.48;1.38;;;;;;;;;;4996219;28;20048;-66
2021/06/10 11:53:27;;;;;;;1.38;1.10;;;;;;;;;;4998718;28;20030;-68
2021/06/10 11:55:56;;;;;;;2.65;1.50;;;;;;;;;;4984284;28;20088;-68
2021/06/10 11:58:25;;;;;;;2.70;1.65;;;;;;;;;;4972347;28;20037;-67
2021/06/10 12:00:51;;;;;;;1.55;1.30;;;;;;;;;;4986512;28;20029;-67
2021/06/10 12:03:17;;;;;;;1.23;1.08;;;;;;;;;;4984993;28;20038;-65
2021/06/10 12:05:49;;;;;;;1.40;1.20;;;;;;;;;;4983273;28;20040;-68
2021/06/10 12:08:17;;;;;;;3.03;1.25;;;;;;;;;;4985628;28;20123;-67
2021/06/10 12:10:59;;;;;;;4.35;1.33;;;;;;;;;;4983325;28;20029;-67
2021/06/10 12:13:32;;;;;;;2.35;1.55;;;;;;;;;;4989648;28;20192;-67
2021/06/10 12:16:01;;;;;;;4.53;1.35;;;;;;;;;;5000568;28;20095;-67
2021/06/10 12:18:27;;;;;;;2.63;1.75;;;;;;;;;;4994609;28;20116;-67
2021/06/10 12:20:54;;;;;;;1.10;0.95;;;;;;;;;;4999651;28;20034;-67
2021/06/10 12:23:22;;;;;;;2.28;1.25;;;;;;;;;;4987066;28;20046;-68
2021/06/10 12:25:55;;;;;;;2.55;1.27;;;;;;;;;;4985967;28;20088;-66
2021/06/10 12:28:29;;;;;;;2.22;1.48;;;;;;;;;;4987656;28;20033;-64
2021/06/10 12:31:00;;;;;;;1.50;1.30;;;;;;;;;;4987138;28;20026;-65
2021/06/10 12:33:27;;;;;;;1.15;1.08;;;;;;;;;;4988217;28;20131;-63
2021/06/10 12:35:56;;;;;;;1.98;1.17;;;;;;;;;;4989127;28;20117;-66
2021/06/10 12:38:36;;;;;;;2.92;1.92;;;;;;;;;;4989257;28;20042;-64
2021/06/10 12:41:10;;;;;;;1.48;1.38;;;;;;;;;;5000222;28;20029;-66
2021/06/10 12:43:36;;;;;;;;;;;;;;;;;;4986680;28;20049;-66
2021/06/10 12:46:03;;;;;;;2.03;1.63;;;;;;;;;;4986398;28;19921;-66
2021/06/10 12:48:34;;;;;;;5.18;1.50;;;;;;;;;;4986190;28;20367;-67
2021/06/10 12:51:19;;;;;;;1.50;1.20;;;;;;;;;;4986233;28;20673;-66
2021/06/10 12:53:56;;;;;;;1.95;1.40;;;;;;;;;;4987023;28;20034;-65
2021/06/10 12:56:43;;;;;;;4.45;1.35;;;;;;;;;;4971310;28;20038;-67
2021/06/10 12:59:17;;;;;;;3.17;1.48;;;;;;;;;;5001723;28;20058;-68
2021/06/10 13:02:00;;;;;;;5.50;1.85;;;;;;;;;;4983379;28;20046;-68
2021/06/10 13:04:29;;;;;;;2.83;1.70;;;;;;;;;;4986826;28;20034;-68
2021/06/10 13:06:55;;;;;;;2.38;1.20;;;;;;;;;;4985768;28;20038;-67
2021/06/10 13:09:23;;;;;;;1.83;1.13;;;;;;;;;;4986243;28;20033;-66
2021/06/10 13:12:08;;;;;;;1.98;1.00;;;;;;;;;;4985797;28;20030;-63
2021/06/10 13:14:33;;;;;;;3.85;1.42;;;;;;;;;;4970425;28;20026;-65
2021/06/10 13:16:59;;;;;;;3.47;1.17;;;;;;;;;;4982189;28;20045;-66
2021/06/10 13:19:25;;;;;;;1.67;1.50;;;;;;;;;;4984170;28;20037;-65
2021/06/10 13:22:05;;;;;;;1.98;1.30;;;;;;;;;;4985254;28;20507;-66
2021/06/10 13:24:44;;;;;;;1.58;1.45;;;;;;;;;;4986340;28;21999;-67
2021/06/10 13:27:19;;;;;;;1.75;1.15;;;;;;;;;;4983959;28;20042;-67
2021/06/10 13:29:51;;;;;;;2.53;1.65;;;;;;;;;;4984387;28;20037;-67
2021/06/10 13:32:35;;;;;;;1.75;1.20;;;;;;;;;;4983588;28;20037;-67
2021/06/10 13:37:30;;;;;;;4.38;1.33;;;;;;;;;;4983058;28;20101;-67
2021/06/10 13:39:56;;;;;;;1.55;1.25;;;;;;;;;;4983446;28;20040;-66
2021/06/10 13:42:22;;;;;;;2.70;1.30;;;;;;;;;;4984421;28;20053;-67
2021/06/10 13:44:52;;;;;;;1.70;1.40;;;;;;;;;;4984353;28;20758;-65
2021/06/10 13:47:18;;;;;;;4.13;1.10;;;;;;;;;;4985793;28;20485;-65
2021/06/10 13:49:45;;;;;;;1.42;0.88;;;;;;;;;;4983309;28;20025;-66
2021/06/10 13:52:12;;;;;;;2.83;1.40;;;;;;;;;;4998751;28;20034;-66
2021/06/10 13:54:37;;;;;;;1.73;1.13;;;;;;;;;;4966403;28;20081;-67
2021/06/10 13:57:06;;;;;;;1.15;1.02;;;;;;;;;;4983183;28;20037;-65
2021/06/10 13:59:31;;;;;;;2.53;1.30;;;;;;;;;;4999322;28;20425;-66
2021/06/10 14:01:57;;;;;;;2.50;1.73;;;;;;;;;;4973253;28;20049;-65
2021/06/10 14:04:22;;;;;;;2.20;1.50;;;;;;;;;;4968905;28;20054;-67
2021/06/10 14:06:50;;;;;;;2.45;1.50;;;;;;;;;;4983584;28;21414;-64
2021/06/10 14:09:16;;;;;;;2.80;1.70;;;;;;;;;;4982895;28;20041;-67
2021/06/10 14:11:42;;;;;;;3.03;1.20;;;;;;;;;;4983220;28;20045;-67
2021/06/10 14:14:09;;;;;;;3.13;1.05;;;;;;;;;;4985070;28;20493;-68
2021/06/10 14:16:38;;;;;;;2.08;1.75;;;;;;;;;;4981253;28;20426;-64
2021/06/10 14:19:08;;;;;;;3.42;1.50;;;;;;;;;;4982588;28;20034;-67
2021/06/10 14:21:36;;;;;;;5.10;1.52;;;;;;;;;;4996614;28;20030;-70
2021/06/10 14:24:05;;;;;;;1.95;1.75;;;;;;;;;;4983636;28;20037;-67
2021/06/10 14:26:31;;;;;;;2.25;1.33;;;;;;;;;;4983235;28;20076;-68
2021/06/10 14:29:14;;;;;;;3.20;1.60;;;;;;;;;;4984132;28;22146;-67
2021/06/10 14:34:18;;;;;;;1.55;1.35;;;;;;;;;;4985929;28;20163;-67
2021/06/10 14:36:46;;;;;;;3.20;1.30;;;;;;;;;;4981000;28;20156;-66
2021/06/10 14:39:12;;;;;;;2.20;1.92;;;;;;;;;;4981716;28;20081;-67
2021/06/10 14:41:38;;;;;;;4.43;1.92;;;;;;;;;;4982322;28;20072;-66
2021/06/10 14:44:04;;;;;;;4.72;2.28;;;;;;;;;;4982683;28;20144;-62
2021/06/10 14:46:30;;;;;;;5.20;1.95;;;;;;;;;;4986361;28;20161;-66
2021/06/10 14:48:55;;;;;;;2.38;1.30;;;;;;;;;;4983831;28;20148;-66